Česky Dansk Deutsch English Español Suomi Français Magyar Italiano Nederlands norsk Polski Português svenska Türkçe

 

Het Weer

Maun (Botswana)

06:00, 21 augustus 2016 (GMT)

NWNNE
WE
SWSSE
Home            
Maun Shakawe Ghanzi Sua-Pan Katima Mulilo Letlhakane Sesheke Kasane Victoria Falls Livingstone Hwange National Park Senanga Francistown Rundu Tshane Binga Selebi Phikwe Choma Mongu Jwaneng Seretse Khama International Airport Gobabis Bulawayo Airport

Om een weerknop op uw website of weblog te plaatsen, copieer onderstaande code en plak die in uw pagina. In het eerste vakje staat HTML-code, in het tweede vakje UBB-code.


Add to Google

Details

Wind speed:1 bf, 3 kn, 1.5 m/s, 3.5 miles/h, 5.6 km/h
Wind direction:NE, 040°
Visibility:Greater than 10000 m, 10 km, 32800 ft, 6.2 miles
Clouds:CAVOC
Temperature:18°C, 64°F
Dew-point:4°C, 39°F
Atmospheric pressure:1018 hPa, 763.6 mmHg, 30.06 inHg, 1.005 atm
Relative humidity:39.4 %
METAR:FBMN 210600Z 04003KT CAVOK 18/04 Q1018

Snelkoppelingen

Actuele weersinformatie van de hele wereld. Voeg locaties toe met het plus (+) symbool. Deze snelkoppelingen kunnen worden toegevoegd aan Google.

Lid van de Technetium groep

website free tracking
StatCounter NetStat W3C Validator

21-10-2020 01:07:44
astro.technetium.be money.technetium.be phote.technetium.be tafeltennistafel.technetium.be www.ligfiets.net